sensor_id;sensor_type;location;lat;lon;timestamp;P1;durP1;ratioP1;P2;durP2;ratioP2
30533;SDS011;17318;52.390;9.754;2023-06-01T00:02:14;8.90;;;3.58;;
30533;SDS011;17318;52.390;9.754;2023-06-01T00:04:40;11.90;;;3.78;;
30533;SDS011;17318;52.390;9.754;2023-06-01T00:07:09;15.45;;;3.78;;
30533;SDS011;17318;52.390;9.754;2023-06-01T00:09:35;10.70;;;4.20;;
30533;SDS011;17318;52.390;9.754;2023-06-01T00:12:02;11.45;;;4.05;;
30533;SDS011;17318;52.390;9.754;2023-06-01T00:14:28;10.15;;;4.03;;
30533;SDS011;17318;52.390;9.754;2023-06-01T00:16:54;13.45;;;3.33;;
30533;SDS011;17318;52.390;9.754;2023-06-01T00:19:21;12.80;;;4.07;;
30533;SDS011;17318;52.390;9.754;2023-06-01T00:21:47;13.60;;;4.05;;
30533;SDS011;17318;52.390;9.754;2023-06-01T00:24:13;16.85;;;4.55;;
30533;SDS011;17318;52.390;9.754;2023-06-01T00:26:38;12.68;;;4.45;;
30533;SDS011;17318;52.390;9.754;2023-06-01T00:29:04;11.73;;;4.63;;
30533;SDS011;17318;52.390;9.754;2023-06-01T00:31:30;14.02;;;4.53;;
30533;SDS011;17318;52.390;9.754;2023-06-01T00:33:55;16.33;;;4.80;;
30533;SDS011;17318;52.390;9.754;2023-06-01T00:36:21;10.38;;;3.80;;
30533;SDS011;17318;52.390;9.754;2023-06-01T00:38:47;14.85;;;4.03;;
30533;SDS011;17318;52.390;9.754;2023-06-01T00:41:12;9.45;;;3.85;;
30533;SDS011;17318;52.390;9.754;2023-06-01T00:43:38;9.02;;;3.53;;
30533;SDS011;17318;52.390;9.754;2023-06-01T00:46:04;18.05;;;4.38;;
30533;SDS011;17318;52.390;9.754;2023-06-01T00:48:30;14.23;;;4.60;;
30533;SDS011;17318;52.390;9.754;2023-06-01T00:50:56;15.93;;;4.32;;
30533;SDS011;17318;52.390;9.754;2023-06-01T00:53:24;14.02;;;4.32;;
30533;SDS011;17318;52.390;9.754;2023-06-01T00:55:50;12.95;;;5.10;;
30533;SDS011;17318;52.390;9.754;2023-06-01T00:58:16;14.77;;;5.90;;
30533;SDS011;17318;52.390;9.754;2023-06-01T01:00:42;12.88;;;4.85;;
30533;SDS011;17318;52.390;9.754;2023-06-01T01:03:08;12.90;;;3.90;;
30533;SDS011;17318;52.390;9.754;2023-06-01T01:05:35;9.40;;;3.63;;
30533;SDS011;17318;52.390;9.754;2023-06-01T01:11:01;8.48;;;3.55;;
30533;SDS011;17318;52.390;9.754;2023-06-01T01:13:47;11.80;;;4.30;;
30533;SDS011;17318;52.390;9.754;2023-06-01T01:16:27;11.98;;;4.15;;
30533;SDS011;17318;52.390;9.754;2023-06-01T01:21:41;10.07;;;4.75;;
30533;SDS011;17318;52.390;9.754;2023-06-01T01:24:23;14.65;;;4.55;;
30533;SDS011;17318;52.390;9.754;2023-06-01T01:29:51;21.80;;;5.03;;
30533;SDS011;17318;52.390;9.754;2023-06-01T01:32:19;10.13;;;4.68;;
30533;SDS011;17318;52.390;9.754;2023-06-01T01:34:47;14.25;;;4.50;;
30533;SDS011;17318;52.390;9.754;2023-06-01T01:37:15;12.45;;;4.53;;
30533;SDS011;17318;52.390;9.754;2023-06-01T01:39:40;13.18;;;4.57;;
30533;SDS011;17318;52.390;9.754;2023-06-01T01:42:06;13.43;;;4.70;;
30533;SDS011;17318;52.390;9.754;2023-06-01T01:44:32;14.60;;;5.35;;
30533;SDS011;17318;52.390;9.754;2023-06-01T01:47:02;14.13;;;4.55;;
30533;SDS011;17318;52.390;9.754;2023-06-01T01:49:45;17.58;;;4.32;;
30533;SDS011;17318;52.390;9.754;2023-06-01T01:52:17;11.65;;;4.15;;
30533;SDS011;17318;52.390;9.754;2023-06-01T01:54:46;13.07;;;3.97;;
30533;SDS011;17318;52.390;9.754;2023-06-01T01:59:41;13.70;;;4.97;;
30533;SDS011;17318;52.390;9.754;2023-06-01T02:02:08;12.30;;;4.75;;
30533;SDS011;17318;52.390;9.754;2023-06-01T02:04:44;10.75;;;4.38;;
30533;SDS011;17318;52.390;9.754;2023-06-01T02:07:12;15.07;;;4.50;;
30533;SDS011;17318;52.390;9.754;2023-06-01T02:09:38;13.70;;;4.45;;
30533;SDS011;17318;52.390;9.754;2023-06-01T02:12:05;17.65;;;5.10;;
30533;SDS011;17318;52.390;9.754;2023-06-01T02:14:31;15.02;;;4.72;;
30533;SDS011;17318;52.390;9.754;2023-06-01T02:16:57;15.23;;;5.18;;
30533;SDS011;17318;52.390;9.754;2023-06-01T02:19:25;16.00;;;5.15;;
30533;SDS011;17318;52.390;9.754;2023-06-01T02:21:51;11.98;;;4.05;;
30533;SDS011;17318;52.390;9.754;2023-06-01T02:24:17;16.20;;;5.30;;
30533;SDS011;17318;52.390;9.754;2023-06-01T02:26:43;17.15;;;4.40;;
30533;SDS011;17318;52.390;9.754;2023-06-01T02:29:12;15.43;;;4.78;;
30533;SDS011;17318;52.390;9.754;2023-06-01T02:31:37;19.35;;;4.95;;
30533;SDS011;17318;52.390;9.754;2023-06-01T02:34:03;13.57;;;5.25;;
30533;SDS011;17318;52.390;9.754;2023-06-01T02:36:29;14.48;;;5.30;;
30533;SDS011;17318;52.390;9.754;2023-06-01T02:38:56;9.57;;;4.88;;
30533;SDS011;17318;52.390;9.754;2023-06-01T02:41:23;16.05;;;5.22;;
30533;SDS011;17318;52.390;9.754;2023-06-01T02:43:49;13.80;;;4.60;;
30533;SDS011;17318;52.390;9.754;2023-06-01T02:46:16;17.15;;;5.03;;
30533;SDS011;17318;52.390;9.754;2023-06-01T02:48:42;14.85;;;5.30;;
30533;SDS011;17318;52.390;9.754;2023-06-01T02:51:08;11.75;;;5.05;;
30533;SDS011;17318;52.390;9.754;2023-06-01T02:53:34;13.98;;;4.10;;
30533;SDS011;17318;52.390;9.754;2023-06-01T02:56:01;15.75;;;4.45;;
30533;SDS011;17318;52.390;9.754;2023-06-01T02:58:27;13.48;;;4.82;;
30533;SDS011;17318;52.390;9.754;2023-06-01T03:00:54;16.53;;;4.73;;
30533;SDS011;17318;52.390;9.754;2023-06-01T03:03:22;18.13;;;5.25;;
30533;SDS011;17318;52.390;9.754;2023-06-01T03:05:52;15.35;;;4.63;;
30533;SDS011;17318;52.390;9.754;2023-06-01T03:08:18;13.55;;;4.68;;
30533;SDS011;17318;52.390;9.754;2023-06-01T03:10:44;13.38;;;5.45;;
30533;SDS011;17318;52.390;9.754;2023-06-01T03:13:10;16.52;;;4.80;;
30533;SDS011;17318;52.390;9.754;2023-06-01T03:15:37;11.80;;;4.47;;
30533;SDS011;17318;52.390;9.754;2023-06-01T03:18:05;11.30;;;4.78;;
30533;SDS011;17318;52.390;9.754;2023-06-01T03:20:32;13.82;;;5.13;;
30533;SDS011;17318;52.390;9.754;2023-06-01T03:22:58;13.88;;;4.53;;
30533;SDS011;17318;52.390;9.754;2023-06-01T03:25:24;13.00;;;4.88;;
30533;SDS011;17318;52.390;9.754;2023-06-01T03:27:53;19.17;;;4.63;;
30533;SDS011;17318;52.390;9.754;2023-06-01T03:30:18;11.23;;;4.63;;
30533;SDS011;17318;52.390;9.754;2023-06-01T03:32:44;18.65;;;4.85;;
30533;SDS011;17318;52.390;9.754;2023-06-01T03:35:11;15.70;;;5.35;;
30533;SDS011;17318;52.390;9.754;2023-06-01T03:37:38;11.45;;;5.65;;
30533;SDS011;17318;52.390;9.754;2023-06-01T03:42:37;19.08;;;5.95;;
30533;SDS011;17318;52.390;9.754;2023-06-01T03:45:04;22.08;;;5.53;;
30533;SDS011;17318;52.390;9.754;2023-06-01T03:47:30;16.50;;;5.55;;
30533;SDS011;17318;52.390;9.754;2023-06-01T03:49:56;14.93;;;5.38;;
30533;SDS011;17318;52.390;9.754;2023-06-01T03:52:29;19.98;;;7.00;;
30533;SDS011;17318;52.390;9.754;2023-06-01T03:54:55;16.38;;;6.38;;
30533;SDS011;17318;52.390;9.754;2023-06-01T03:57:22;13.00;;;5.78;;
30533;SDS011;17318;52.390;9.754;2023-06-01T03:59:48;15.07;;;5.45;;
30533;SDS011;17318;52.390;9.754;2023-06-01T04:02:14;16.48;;;6.55;;
30533;SDS011;17318;52.390;9.754;2023-06-01T04:04:39;25.33;;;6.75;;
30533;SDS011;17318;52.390;9.754;2023-06-01T04:07:11;17.45;;;6.53;;
30533;SDS011;17318;52.390;9.754;2023-06-01T04:09:42;16.05;;;5.15;;
30533;SDS011;17318;52.390;9.754;2023-06-01T04:12:09;24.00;;;5.63;;
30533;SDS011;17318;52.390;9.754;2023-06-01T04:14:38;15.68;;;6.07;;
30533;SDS011;17318;52.390;9.754;2023-06-01T04:17:04;11.15;;;5.78;;
30533;SDS011;17318;52.390;9.754;2023-06-01T04:19:31;13.77;;;5.30;;
30533;SDS011;17318;52.390;9.754;2023-06-01T04:21:58;13.57;;;5.43;;
30533;SDS011;17318;52.390;9.754;2023-06-01T04:24:24;12.55;;;6.68;;
30533;SDS011;17318;52.390;9.754;2023-06-01T04:26:50;16.15;;;5.50;;
30533;SDS011;17318;52.390;9.754;2023-06-01T04:29:16;8.68;;;4.32;;
30533;SDS011;17318;52.390;9.754;2023-06-01T04:31:47;10.02;;;5.10;;
30533;SDS011;17318;52.390;9.754;2023-06-01T04:34:12;16.08;;;4.93;;
30533;SDS011;17318;52.390;9.754;2023-06-01T04:36:38;13.20;;;5.28;;
30533;SDS011;17318;52.390;9.754;2023-06-01T04:39:05;9.38;;;4.65;;
30533;SDS011;17318;52.390;9.754;2023-06-01T04:41:32;13.93;;;4.95;;
30533;SDS011;17318;52.390;9.754;2023-06-01T04:44:01;9.93;;;4.93;;
30533;SDS011;17318;52.390;9.754;2023-06-01T04:46:31;11.70;;;4.75;;
30533;SDS011;17318;52.390;9.754;2023-06-01T04:48:57;9.45;;;4.05;;
30533;SDS011;17318;52.390;9.754;2023-06-01T04:51:25;11.68;;;3.83;;
30533;SDS011;17318;52.390;9.754;2023-06-01T04:53:52;11.10;;;3.70;;
30533;SDS011;17318;52.390;9.754;2023-06-01T04:56:19;15.07;;;4.10;;
30533;SDS011;17318;52.390;9.754;2023-06-01T04:58:49;10.70;;;4.18;;
30533;SDS011;17318;52.390;9.754;2023-06-01T05:01:16;10.43;;;4.00;;
30533;SDS011;17318;52.390;9.754;2023-06-01T05:03:43;7.50;;;3.50;;
30533;SDS011;17318;52.390;9.754;2023-06-01T05:06:11;8.13;;;3.50;;
30533;SDS011;17318;52.390;9.754;2023-06-01T05:08:41;10.30;;;3.78;;
30533;SDS011;17318;52.390;9.754;2023-06-01T05:11:07;8.52;;;3.80;;
30533;SDS011;17318;52.390;9.754;2023-06-01T05:13:40;8.25;;;4.55;;
30533;SDS011;17318;52.390;9.754;2023-06-01T05:16:06;9.77;;;3.53;;
30533;SDS011;17318;52.390;9.754;2023-06-01T05:18:33;9.23;;;3.83;;
30533;SDS011;17318;52.390;9.754;2023-06-01T05:21:00;11.05;;;4.30;;
30533;SDS011;17318;52.390;9.754;2023-06-01T05:23:27;9.15;;;4.15;;
30533;SDS011;17318;52.390;9.754;2023-06-01T05:25:53;12.70;;;3.83;;
30533;SDS011;17318;52.390;9.754;2023-06-01T05:28:26;9.68;;;3.90;;
30533;SDS011;17318;52.390;9.754;2023-06-01T05:30:53;10.00;;;3.72;;
30533;SDS011;17318;52.390;9.754;2023-06-01T05:33:19;11.75;;;3.83;;
30533;SDS011;17318;52.390;9.754;2023-06-01T05:35:45;12.45;;;4.05;;
30533;SDS011;17318;52.390;9.754;2023-06-01T05:38:10;12.23;;;4.55;;
30533;SDS011;17318;52.390;9.754;2023-06-01T05:40:36;13.43;;;4.72;;
30533;SDS011;17318;52.390;9.754;2023-06-01T05:43:01;9.15;;;4.28;;
30533;SDS011;17318;52.390;9.754;2023-06-01T05:45:27;15.18;;;4.35;;
30533;SDS011;17318;52.390;9.754;2023-06-01T05:47:54;13.57;;;4.85;;
30533;SDS011;17318;52.390;9.754;2023-06-01T05:50:20;8.73;;;4.13;;
30533;SDS011;17318;52.390;9.754;2023-06-01T05:52:45;17.45;;;5.40;;
30533;SDS011;17318;52.390;9.754;2023-06-01T05:55:11;11.02;;;4.72;;
30533;SDS011;17318;52.390;9.754;2023-06-01T05:57:37;10.13;;;4.93;;
30533;SDS011;17318;52.390;9.754;2023-06-01T06:00:02;16.10;;;5.07;;
30533;SDS011;17318;52.390;9.754;2023-06-01T06:02:34;10.98;;;4.82;;
30533;SDS011;17318;52.390;9.754;2023-06-01T06:05:00;15.07;;;4.72;;
30533;SDS011;17318;52.390;9.754;2023-06-01T06:07:26;16.05;;;5.10;;
30533;SDS011;17318;52.390;9.754;2023-06-01T06:09:51;15.45;;;5.00;;
30533;SDS011;17318;52.390;9.754;2023-06-01T06:12:17;9.57;;;4.95;;
30533;SDS011;17318;52.390;9.754;2023-06-01T06:14:43;12.57;;;5.60;;
30533;SDS011;17318;52.390;9.754;2023-06-01T06:17:08;14.60;;;5.40;;
30533;SDS011;17318;52.390;9.754;2023-06-01T06:19:34;15.05;;;5.05;;
30533;SDS011;17318;52.390;9.754;2023-06-01T06:22:00;11.32;;;5.75;;
30533;SDS011;17318;52.390;9.754;2023-06-01T06:24:25;14.63;;;5.43;;
30533;SDS011;17318;52.390;9.754;2023-06-01T06:26:51;24.33;;;5.68;;
30533;SDS011;17318;52.390;9.754;2023-06-01T06:29:17;18.50;;;5.75;;
30533;SDS011;17318;52.390;9.754;2023-06-01T06:31:42;16.10;;;5.80;;
30533;SDS011;17318;52.390;9.754;2023-06-01T06:34:10;15.43;;;5.68;;
30533;SDS011;17318;52.390;9.754;2023-06-01T06:36:38;18.88;;;6.20;;
30533;SDS011;17318;52.390;9.754;2023-06-01T06:39:04;18.42;;;6.45;;
30533;SDS011;17318;52.390;9.754;2023-06-01T06:41:29;22.95;;;7.10;;
30533;SDS011;17318;52.390;9.754;2023-06-01T06:43:55;19.05;;;6.78;;
30533;SDS011;17318;52.390;9.754;2023-06-01T06:46:22;21.05;;;6.68;;
30533;SDS011;17318;52.390;9.754;2023-06-01T06:48:48;13.82;;;6.38;;
30533;SDS011;17318;52.390;9.754;2023-06-01T06:51:13;12.75;;;5.68;;
30533;SDS011;17318;52.390;9.754;2023-06-01T06:53:39;14.63;;;5.30;;
30533;SDS011;17318;52.390;9.754;2023-06-01T06:56:05;14.23;;;5.97;;
30533;SDS011;17318;52.390;9.754;2023-06-01T06:58:31;13.90;;;6.10;;
30533;SDS011;17318;52.390;9.754;2023-06-01T07:00:56;14.68;;;6.40;;
30533;SDS011;17318;52.390;9.754;2023-06-01T07:03:22;13.82;;;7.18;;
30533;SDS011;17318;52.390;9.754;2023-06-01T07:05:48;19.75;;;7.93;;
30533;SDS011;17318;52.390;9.754;2023-06-01T07:08:14;21.13;;;8.90;;
30533;SDS011;17318;52.390;9.754;2023-06-01T07:10:40;15.52;;;7.50;;
30533;SDS011;17318;52.390;9.754;2023-06-01T07:13:05;20.63;;;8.07;;
30533;SDS011;17318;52.390;9.754;2023-06-01T07:15:31;19.00;;;8.93;;
30533;SDS011;17318;52.390;9.754;2023-06-01T07:17:57;22.90;;;9.25;;
30533;SDS011;17318;52.390;9.754;2023-06-01T07:20:22;22.38;;;8.93;;
30533;SDS011;17318;52.390;9.754;2023-06-01T07:22:48;23.10;;;10.10;;
30533;SDS011;17318;52.390;9.754;2023-06-01T07:25:15;20.65;;;9.77;;
30533;SDS011;17318;52.390;9.754;2023-06-01T07:27:41;20.52;;;9.13;;
30533;SDS011;17318;52.390;9.754;2023-06-01T07:30:08;20.83;;;9.47;;
30533;SDS011;17318;52.390;9.754;2023-06-01T07:32:35;21.38;;;9.38;;
30533;SDS011;17318;52.390;9.754;2023-06-01T07:35:02;25.13;;;9.63;;
30533;SDS011;17318;52.390;9.754;2023-06-01T07:37:30;18.70;;;8.10;;
30533;SDS011;17318;52.390;9.754;2023-06-01T07:39:56;22.98;;;8.00;;
30533;SDS011;17318;52.390;9.754;2023-06-01T07:42:22;16.60;;;8.00;;
30533;SDS011;17318;52.390;9.754;2023-06-01T07:44:48;17.10;;;8.38;;
30533;SDS011;17318;52.390;9.754;2023-06-01T07:47:15;16.70;;;8.02;;
30533;SDS011;17318;52.390;9.754;2023-06-01T07:49:41;20.05;;;8.70;;
30533;SDS011;17318;52.390;9.754;2023-06-01T07:52:07;17.15;;;7.53;;
30533;SDS011;17318;52.390;9.754;2023-06-01T07:54:33;22.23;;;8.43;;
30533;SDS011;17318;52.390;9.754;2023-06-01T07:57:05;22.48;;;8.80;;
30533;SDS011;17318;52.390;9.754;2023-06-01T07:59:31;22.20;;;9.38;;
30533;SDS011;17318;52.390;9.754;2023-06-01T08:01:57;18.50;;;8.93;;
30533;SDS011;17318;52.390;9.754;2023-06-01T08:04:24;18.08;;;8.30;;
30533;SDS011;17318;52.390;9.754;2023-06-01T08:06:51;19.30;;;7.47;;
30533;SDS011;17318;52.390;9.754;2023-06-01T08:09:21;20.73;;;7.85;;
30533;SDS011;17318;52.390;9.754;2023-06-01T08:11:48;14.80;;;6.72;;
30533;SDS011;17318;52.390;9.754;2023-06-01T08:14:15;15.45;;;7.20;;
30533;SDS011;17318;52.390;9.754;2023-06-01T08:16:42;19.67;;;6.20;;
30533;SDS011;17318;52.390;9.754;2023-06-01T08:19:08;18.88;;;6.50;;
30533;SDS011;17318;52.390;9.754;2023-06-01T08:21:33;17.10;;;6.85;;
30533;SDS011;17318;52.390;9.754;2023-06-01T08:24:00;12.77;;;6.88;;
30533;SDS011;17318;52.390;9.754;2023-06-01T08:26:27;12.15;;;6.30;;
30533;SDS011;17318;52.390;9.754;2023-06-01T08:28:53;11.93;;;6.25;;
30533;SDS011;17318;52.390;9.754;2023-06-01T08:31:19;12.23;;;6.25;;
30533;SDS011;17318;52.390;9.754;2023-06-01T08:33:46;15.40;;;6.32;;
30533;SDS011;17318;52.390;9.754;2023-06-01T08:36:13;10.48;;;5.53;;
30533;SDS011;17318;52.390;9.754;2023-06-01T08:38:39;17.92;;;6.78;;
30533;SDS011;17318;52.390;9.754;2023-06-01T08:41:14;16.38;;;7.05;;
30533;SDS011;17318;52.390;9.754;2023-06-01T08:43:58;17.23;;;6.85;;
30533;SDS011;17318;52.390;9.754;2023-06-01T08:46:26;13.15;;;6.00;;
30533;SDS011;17318;52.390;9.754;2023-06-01T08:48:54;19.77;;;5.72;;
30533;SDS011;17318;52.390;9.754;2023-06-01T08:51:23;18.60;;;5.72;;
30533;SDS011;17318;52.390;9.754;2023-06-01T08:53:50;10.55;;;5.43;;
30533;SDS011;17318;52.390;9.754;2023-06-01T08:56:16;15.82;;;6.03;;
30533;SDS011;17318;52.390;9.754;2023-06-01T08:58:45;24.83;;;6.22;;
30533;SDS011;17318;52.390;9.754;2023-06-01T09:01:20;14.05;;;5.18;;
30533;SDS011;17318;52.390;9.754;2023-06-01T09:03:48;18.80;;;4.72;;
30533;SDS011;17318;52.390;9.754;2023-06-01T09:06:16;10.13;;;4.10;;
30533;SDS011;17318;52.390;9.754;2023-06-01T09:08:42;11.23;;;6.07;;
30533;SDS011;17318;52.390;9.754;2023-06-01T09:11:10;6.80;;;3.60;;
30533;SDS011;17318;52.390;9.754;2023-06-01T09:13:39;8.25;;;4.05;;
30533;SDS011;17318;52.390;9.754;2023-06-01T09:16:06;10.27;;;3.58;;
30533;SDS011;17318;52.390;9.754;2023-06-01T09:18:32;12.95;;;5.10;;
30533;SDS011;17318;52.390;9.754;2023-06-01T09:21:19;6.68;;;3.50;;
30533;SDS011;17318;52.390;9.754;2023-06-01T09:23:44;6.50;;;3.15;;
30533;SDS011;17318;52.390;9.754;2023-06-01T09:26:10;5.43;;;2.83;;
30533;SDS011;17318;52.390;9.754;2023-06-01T09:34:00;7.15;;;3.25;;
30533;SDS011;17318;52.390;9.754;2023-06-01T09:36:26;6.55;;;2.90;;
30533;SDS011;17318;52.390;9.754;2023-06-01T09:38:59;9.02;;;2.65;;
30533;SDS011;17318;52.390;9.754;2023-06-01T09:41:57;8.07;;;2.70;;
30533;SDS011;17318;52.390;9.754;2023-06-01T09:44:30;4.45;;;2.50;;
30533;SDS011;17318;52.390;9.754;2023-06-01T09:46:58;10.00;;;5.30;;
30533;SDS011;17318;52.390;9.754;2023-06-01T09:54:38;10.48;;;3.50;;
30533;SDS011;17318;52.390;9.754;2023-06-01T09:57:11;7.88;;;3.10;;
30533;SDS011;17318;52.390;9.754;2023-06-01T09:59:44;7.43;;;2.33;;
30533;SDS011;17318;52.390;9.754;2023-06-01T10:02:29;6.50;;;2.90;;
30533;SDS011;17318;52.390;9.754;2023-06-01T10:04:58;5.85;;;2.58;;
30533;SDS011;17318;52.390;9.754;2023-06-01T10:07:31;5.13;;;2.00;;
30533;SDS011;17318;52.390;9.754;2023-06-01T10:09:59;3.88;;;2.45;;
30533;SDS011;17318;52.390;9.754;2023-06-01T10:12:27;7.68;;;2.80;;
30533;SDS011;17318;52.390;9.754;2023-06-01T10:14:53;5.75;;;2.60;;
30533;SDS011;17318;52.390;9.754;2023-06-01T10:17:21;3.75;;;2.33;;
30533;SDS011;17318;52.390;9.754;2023-06-01T10:19:47;4.60;;;2.50;;
30533;SDS011;17318;52.390;9.754;2023-06-01T10:22:13;6.85;;;2.90;;
30533;SDS011;17318;52.390;9.754;2023-06-01T10:24:40;10.98;;;4.68;;
30533;SDS011;17318;52.390;9.754;2023-06-01T10:29:39;6.72;;;2.80;;
30533;SDS011;17318;52.390;9.754;2023-06-01T10:32:52;4.13;;;2.38;;
30533;SDS011;17318;52.390;9.754;2023-06-01T10:35:09;3.78;;;1.90;;
30533;SDS011;17318;52.390;9.754;2023-06-01T10:37:37;4.53;;;2.28;;
30533;SDS011;17318;52.390;9.754;2023-06-01T10:40:36;7.30;;;2.50;;
30533;SDS011;17318;52.390;9.754;2023-06-01T10:42:55;3.67;;;1.98;;
30533;SDS011;17318;52.390;9.754;2023-06-01T10:48:04;5.40;;;1.88;;
30533;SDS011;17318;52.390;9.754;2023-06-01T10:50:36;2.08;;;1.75;;
30533;SDS011;17318;52.390;9.754;2023-06-01T10:58:42;4.32;;;2.33;;
30533;SDS011;17318;52.390;9.754;2023-06-01T11:01:07;4.95;;;1.88;;
30533;SDS011;17318;52.390;9.754;2023-06-01T11:03:42;3.72;;;1.73;;
30533;SDS011;17318;52.390;9.754;2023-06-01T11:08:56;5.90;;;2.35;;
30533;SDS011;17318;52.390;9.754;2023-06-01T11:14:09;3.95;;;2.03;;
30533;SDS011;17318;52.390;9.754;2023-06-01T11:16:36;3.75;;;2.00;;
30533;SDS011;17318;52.390;9.754;2023-06-01T11:19:02;3.80;;;2.53;;
30533;SDS011;17318;52.390;9.754;2023-06-01T11:21:30;10.80;;;3.10;;
30533;SDS011;17318;52.390;9.754;2023-06-01T11:24:05;5.43;;;2.45;;
30533;SDS011;17318;52.390;9.754;2023-06-01T11:26:38;4.40;;;2.40;;
30533;SDS011;17318;52.390;9.754;2023-06-01T11:31:41;9.73;;;3.70;;
30533;SDS011;17318;52.390;9.754;2023-06-01T11:34:11;4.93;;;2.60;;
30533;SDS011;17318;52.390;9.754;2023-06-01T11:36:39;4.53;;;2.72;;
30533;SDS011;17318;52.390;9.754;2023-06-01T11:39:23;4.88;;;2.85;;
30533;SDS011;17318;52.390;9.754;2023-06-01T11:42:03;4.93;;;2.80;;
30533;SDS011;17318;52.390;9.754;2023-06-01T11:44:30;7.07;;;2.47;;
30533;SDS011;17318;52.390;9.754;2023-06-01T11:46:57;10.10;;;3.15;;
30533;SDS011;17318;52.390;9.754;2023-06-01T11:49:23;10.70;;;3.30;;
30533;SDS011;17318;52.390;9.754;2023-06-01T11:51:50;4.95;;;3.17;;
30533;SDS011;17318;52.390;9.754;2023-06-01T11:54:21;7.05;;;2.83;;
30533;SDS011;17318;52.390;9.754;2023-06-01T11:56:54;7.00;;;3.13;;
30533;SDS011;17318;52.390;9.754;2023-06-01T11:59:21;3.73;;;2.93;;
30533;SDS011;17318;52.390;9.754;2023-06-01T12:01:47;4.63;;;3.15;;
30533;SDS011;17318;52.390;9.754;2023-06-01T12:04:21;4.05;;;2.50;;
30533;SDS011;17318;52.390;9.754;2023-06-01T12:06:48;9.25;;;4.07;;
30533;SDS011;17318;52.390;9.754;2023-06-01T12:09:14;4.72;;;3.20;;
30533;SDS011;17318;52.390;9.754;2023-06-01T12:11:41;10.70;;;3.67;;
30533;SDS011;17318;52.390;9.754;2023-06-01T12:14:09;6.55;;;3.50;;
30533;SDS011;17318;52.390;9.754;2023-06-01T12:16:52;7.03;;;3.13;;
30533;SDS011;17318;52.390;9.754;2023-06-01T12:19:25;5.35;;;3.10;;
30533;SDS011;17318;52.390;9.754;2023-06-01T12:21:57;8.25;;;3.60;;
30533;SDS011;17318;52.390;9.754;2023-06-01T12:24:30;8.65;;;3.25;;
30533;SDS011;17318;52.390;9.754;2023-06-01T12:26:58;11.73;;;3.58;;
30533;SDS011;17318;52.390;9.754;2023-06-01T12:29:37;10.52;;;4.30;;
30533;SDS011;17318;52.390;9.754;2023-06-01T12:32:04;6.55;;;3.70;;
30533;SDS011;17318;52.390;9.754;2023-06-01T12:34:30;6.90;;;3.30;;
30533;SDS011;17318;52.390;9.754;2023-06-01T12:36:56;8.15;;;4.00;;
30533;SDS011;17318;52.390;9.754;2023-06-01T12:39:31;8.90;;;4.07;;
30533;SDS011;17318;52.390;9.754;2023-06-01T12:42:05;6.07;;;3.28;;
30533;SDS011;17318;52.390;9.754;2023-06-01T12:44:31;8.88;;;3.92;;
30533;SDS011;17318;52.390;9.754;2023-06-01T12:47:00;6.47;;;3.13;;
30533;SDS011;17318;52.390;9.754;2023-06-01T12:49:26;7.95;;;2.85;;
30533;SDS011;17318;52.390;9.754;2023-06-01T12:51:52;5.75;;;3.53;;
30533;SDS011;17318;52.390;9.754;2023-06-01T12:54:18;12.38;;;5.32;;
30533;SDS011;17318;52.390;9.754;2023-06-01T12:56:44;11.07;;;4.00;;
30533;SDS011;17318;52.390;9.754;2023-06-01T12:59:12;16.42;;;5.55;;
30533;SDS011;17318;52.390;9.754;2023-06-01T13:01:38;11.15;;;4.05;;
30533;SDS011;17318;52.390;9.754;2023-06-01T13:04:03;7.40;;;3.47;;
30533;SDS011;17318;52.390;9.754;2023-06-01T13:06:29;7.78;;;3.03;;
30533;SDS011;17318;52.390;9.754;2023-06-01T13:08:55;5.57;;;2.80;;
30533;SDS011;17318;52.390;9.754;2023-06-01T13:11:21;13.95;;;3.05;;
30533;SDS011;17318;52.390;9.754;2023-06-01T13:13:50;16.95;;;4.07;;
30533;SDS011;17318;52.390;9.754;2023-06-01T13:16:16;8.02;;;3.20;;
30533;SDS011;17318;52.390;9.754;2023-06-01T13:18:42;7.10;;;2.95;;
30533;SDS011;17318;52.390;9.754;2023-06-01T13:21:09;6.97;;;2.92;;
30533;SDS011;17318;52.390;9.754;2023-06-01T13:23:35;6.35;;;3.40;;
30533;SDS011;17318;52.390;9.754;2023-06-01T13:26:01;7.05;;;2.83;;
30533;SDS011;17318;52.390;9.754;2023-06-01T13:28:26;6.88;;;2.05;;
30533;SDS011;17318;52.390;9.754;2023-06-01T13:30:52;3.67;;;2.17;;
30533;SDS011;17318;52.390;9.754;2023-06-01T13:33:20;8.20;;;2.28;;
30533;SDS011;17318;52.390;9.754;2023-06-01T13:35:46;3.15;;;2.10;;
30533;SDS011;17318;52.390;9.754;2023-06-01T13:38:12;3.17;;;2.00;;
30533;SDS011;17318;52.390;9.754;2023-06-01T13:40:38;7.35;;;2.85;;
30533;SDS011;17318;52.390;9.754;2023-06-01T13:43:07;7.63;;;2.47;;
30533;SDS011;17318;52.390;9.754;2023-06-01T13:45:33;6.32;;;2.30;;
30533;SDS011;17318;52.390;9.754;2023-06-01T13:47:59;4.75;;;2.53;;
30533;SDS011;17318;52.390;9.754;2023-06-01T13:50:25;5.68;;;2.45;;
30533;SDS011;17318;52.390;9.754;2023-06-01T13:52:51;4.28;;;2.33;;
30533;SDS011;17318;52.390;9.754;2023-06-01T13:55:18;11.03;;;4.13;;
30533;SDS011;17318;52.390;9.754;2023-06-01T13:57:44;7.43;;;2.92;;
30533;SDS011;17318;52.390;9.754;2023-06-01T14:00:10;8.38;;;3.08;;
30533;SDS011;17318;52.390;9.754;2023-06-01T14:02:37;7.65;;;3.38;;
30533;SDS011;17318;52.390;9.754;2023-06-01T14:05:02;6.55;;;2.90;;
30533;SDS011;17318;52.390;9.754;2023-06-01T14:07:29;5.25;;;2.67;;
30533;SDS011;17318;52.390;9.754;2023-06-01T14:09:55;6.15;;;2.83;;
30533;SDS011;17318;52.390;9.754;2023-06-01T14:12:20;6.32;;;3.03;;
30533;SDS011;17318;52.390;9.754;2023-06-01T14:14:47;4.50;;;2.63;;
30533;SDS011;17318;52.390;9.754;2023-06-01T14:17:12;4.78;;;3.03;;
30533;SDS011;17318;52.390;9.754;2023-06-01T14:19:38;5.63;;;2.70;;
30533;SDS011;17318;52.390;9.754;2023-06-01T14:22:04;5.70;;;3.10;;
30533;SDS011;17318;52.390;9.754;2023-06-01T14:24:30;8.98;;;2.90;;
30533;SDS011;17318;52.390;9.754;2023-06-01T14:26:55;5.03;;;2.47;;
30533;SDS011;17318;52.390;9.754;2023-06-01T14:29:21;8.32;;;3.28;;
30533;SDS011;17318;52.390;9.754;2023-06-01T14:31:46;5.72;;;2.53;;
30533;SDS011;17318;52.390;9.754;2023-06-01T14:34:12;4.60;;;2.63;;
30533;SDS011;17318;52.390;9.754;2023-06-01T14:36:38;7.95;;;3.40;;
30533;SDS011;17318;52.390;9.754;2023-06-01T14:39:03;8.88;;;3.05;;
30533;SDS011;17318;52.390;9.754;2023-06-01T14:41:30;6.85;;;2.88;;
30533;SDS011;17318;52.390;9.754;2023-06-01T14:43:55;6.63;;;2.88;;
30533;SDS011;17318;52.390;9.754;2023-06-01T14:46:21;8.75;;;4.05;;
30533;SDS011;17318;52.390;9.754;2023-06-01T14:48:47;8.68;;;3.08;;
30533;SDS011;17318;52.390;9.754;2023-06-01T14:51:12;9.05;;;3.35;;
30533;SDS011;17318;52.390;9.754;2023-06-01T14:53:38;6.22;;;2.97;;
30533;SDS011;17318;52.390;9.754;2023-06-01T14:56:06;9.95;;;2.92;;
30533;SDS011;17318;52.390;9.754;2023-06-01T14:58:33;12.52;;;3.17;;
30533;SDS011;17318;52.390;9.754;2023-06-01T15:00:59;10.68;;;2.97;;
30533;SDS011;17318;52.390;9.754;2023-06-01T15:03:25;6.90;;;2.53;;
30533;SDS011;17318;52.390;9.754;2023-06-01T15:05:51;16.83;;;3.45;;
30533;SDS011;17318;52.390;9.754;2023-06-01T15:08:16;6.72;;;2.63;;
30533;SDS011;17318;52.390;9.754;2023-06-01T15:10:45;8.77;;;2.50;;
30533;SDS011;17318;52.390;9.754;2023-06-01T15:13:11;12.77;;;2.85;;
30533;SDS011;17318;52.390;9.754;2023-06-01T15:15:40;8.27;;;2.47;;
30533;SDS011;17318;52.390;9.754;2023-06-01T15:18:06;9.63;;;3.00;;
30533;SDS011;17318;52.390;9.754;2023-06-01T15:20:32;6.65;;;2.67;;
30533;SDS011;17318;52.390;9.754;2023-06-01T15:22:57;7.85;;;3.08;;
30533;SDS011;17318;52.390;9.754;2023-06-01T15:25:23;10.55;;;2.80;;
30533;SDS011;17318;52.390;9.754;2023-06-01T15:27:49;10.30;;;3.28;;